sensor_id;sensor_type;location;lat;lon;timestamp;temperature;humidity
1455;DHT22;721;48.168;12.818;2024-03-22T00:00:17;9.10;48.10
1455;DHT22;721;48.168;12.818;2024-03-22T00:02:44;9.10;47.30
1455;DHT22;721;48.168;12.818;2024-03-22T00:05:10;9.10;47.50
1455;DHT22;721;48.168;12.818;2024-03-22T00:07:36;9.10;48.60
1455;DHT22;721;48.168;12.818;2024-03-22T00:10:04;9.20;48.10
1455;DHT22;721;48.168;12.818;2024-03-22T00:12:31;9.20;47.90
1455;DHT22;721;48.168;12.818;2024-03-22T00:14:58;9.30;47.90
1455;DHT22;721;48.168;12.818;2024-03-22T00:17:25;9.30;46.60
1455;DHT22;721;48.168;12.818;2024-03-22T00:19:51;9.20;46.00
1455;DHT22;721;48.168;12.818;2024-03-22T00:22:17;9.20;46.30
1455;DHT22;721;48.168;12.818;2024-03-22T00:24:43;9.10;47.70
1455;DHT22;721;48.168;12.818;2024-03-22T00:27:10;9.10;48.10
1455;DHT22;721;48.168;12.818;2024-03-22T00:29:37;9.10;48.70
1455;DHT22;721;48.168;12.818;2024-03-22T00:32:05;9.10;47.70
1455;DHT22;721;48.168;12.818;2024-03-22T00:34:33;9.10;48.00
1455;DHT22;721;48.168;12.818;2024-03-22T00:37:00;9.10;47.70
1455;DHT22;721;48.168;12.818;2024-03-22T00:39:25;9.20;46.40
1455;DHT22;721;48.168;12.818;2024-03-22T00:41:52;9.20;46.60
1455;DHT22;721;48.168;12.818;2024-03-22T00:44:18;9.20;45.40
1455;DHT22;721;48.168;12.818;2024-03-22T00:46:45;9.20;45.40
1455;DHT22;721;48.168;12.818;2024-03-22T00:49:12;9.30;43.50
1455;DHT22;721;48.168;12.818;2024-03-22T00:51:39;9.30;41.50
1455;DHT22;721;48.168;12.818;2024-03-22T00:54:05;9.30;40.30
1455;DHT22;721;48.168;12.818;2024-03-22T00:56:31;9.30;39.10
1455;DHT22;721;48.168;12.818;2024-03-22T00:58:57;9.30;36.80
1455;DHT22;721;48.168;12.818;2024-03-22T01:01:24;9.30;37.50
1455;DHT22;721;48.168;12.818;2024-03-22T01:03:50;9.30;37.40
1455;DHT22;721;48.168;12.818;2024-03-22T01:06:18;9.30;36.60
1455;DHT22;721;48.168;12.818;2024-03-22T01:08:49;9.30;35.90
1455;DHT22;721;48.168;12.818;2024-03-22T01:11:17;9.30;34.70
1455;DHT22;721;48.168;12.818;2024-03-22T01:13:43;9.30;34.60
1455;DHT22;721;48.168;12.818;2024-03-22T01:16:09;9.30;33.20
1455;DHT22;721;48.168;12.818;2024-03-22T01:18:35;9.30;33.50
1455;DHT22;721;48.168;12.818;2024-03-22T01:21:02;9.30;32.50
1455;DHT22;721;48.168;12.818;2024-03-22T01:23:30;9.20;33.60
1455;DHT22;721;48.168;12.818;2024-03-22T01:25:56;9.20;33.20
1455;DHT22;721;48.168;12.818;2024-03-22T01:28:22;9.20;32.80
1455;DHT22;721;48.168;12.818;2024-03-22T01:30:49;9.10;32.80
1455;DHT22;721;48.168;12.818;2024-03-22T01:33:15;9.10;31.90
1455;DHT22;721;48.168;12.818;2024-03-22T01:35:41;9.10;30.90
1455;DHT22;721;48.168;12.818;2024-03-22T01:38:07;9.00;32.60
1455;DHT22;721;48.168;12.818;2024-03-22T01:40:35;8.90;32.90
1455;DHT22;721;48.168;12.818;2024-03-22T01:43:01;8.80;34.20
1455;DHT22;721;48.168;12.818;2024-03-22T01:45:32;8.80;34.30
1455;DHT22;721;48.168;12.818;2024-03-22T01:47:59;8.80;33.40
1455;DHT22;721;48.168;12.818;2024-03-22T01:50:26;8.80;31.90
1455;DHT22;721;48.168;12.818;2024-03-22T01:52:53;8.80;31.10
1455;DHT22;721;48.168;12.818;2024-03-22T01:55:20;8.80;31.00
1455;DHT22;721;48.168;12.818;2024-03-22T01:57:48;8.80;31.30
1455;DHT22;721;48.168;12.818;2024-03-22T02:00:15;8.70;31.80
1455;DHT22;721;48.168;12.818;2024-03-22T02:02:41;8.60;32.70
1455;DHT22;721;48.168;12.818;2024-03-22T02:05:12;8.50;30.20
1455;DHT22;721;48.168;12.818;2024-03-22T02:07:38;8.40;35.20
1455;DHT22;721;48.168;12.818;2024-03-22T02:10:06;8.30;37.60
1455;DHT22;721;48.168;12.818;2024-03-22T02:12:33;8.40;37.20
1455;DHT22;721;48.168;12.818;2024-03-22T02:15:02;8.30;37.40
1455;DHT22;721;48.168;12.818;2024-03-22T02:17:28;8.30;37.70
1455;DHT22;721;48.168;12.818;2024-03-22T02:19:54;8.30;37.40
1455;DHT22;721;48.168;12.818;2024-03-22T02:22:20;8.30;37.00
1455;DHT22;721;48.168;12.818;2024-03-22T02:24:48;8.30;37.10
1455;DHT22;721;48.168;12.818;2024-03-22T02:27:14;8.40;36.00
1455;DHT22;721;48.168;12.818;2024-03-22T02:29:41;8.30;35.60
1455;DHT22;721;48.168;12.818;2024-03-22T02:32:07;8.30;35.00
1455;DHT22;721;48.168;12.818;2024-03-22T02:34:34;8.30;35.40
1455;DHT22;721;48.168;12.818;2024-03-22T02:37:00;8.20;34.90
1455;DHT22;721;48.168;12.818;2024-03-22T02:39:27;8.10;37.10
1455;DHT22;721;48.168;12.818;2024-03-22T02:41:55;8.10;38.20
1455;DHT22;721;48.168;12.818;2024-03-22T02:44:22;8.10;37.50
1455;DHT22;721;48.168;12.818;2024-03-22T02:46:48;8.10;37.10
1455;DHT22;721;48.168;12.818;2024-03-22T02:49:14;8.10;35.30
1455;DHT22;721;48.168;12.818;2024-03-22T02:51:40;8.10;34.10
1455;DHT22;721;48.168;12.818;2024-03-22T02:54:07;8.00;34.70
1455;DHT22;721;48.168;12.818;2024-03-22T02:56:33;8.00;35.00
1455;DHT22;721;48.168;12.818;2024-03-22T02:59:01;8.00;35.60
1455;DHT22;721;48.168;12.818;2024-03-22T03:01:27;8.00;34.50
1455;DHT22;721;48.168;12.818;2024-03-22T03:03:54;8.00;34.30
1455;DHT22;721;48.168;12.818;2024-03-22T03:06:19;8.00;33.20
1455;DHT22;721;48.168;12.818;2024-03-22T03:08:46;8.00;32.30
1455;DHT22;721;48.168;12.818;2024-03-22T03:11:14;8.10;31.50
1455;DHT22;721;48.168;12.818;2024-03-22T03:13:41;8.10;31.70
1455;DHT22;721;48.168;12.818;2024-03-22T03:16:08;8.00;32.10
1455;DHT22;721;48.168;12.818;2024-03-22T03:18:35;8.10;30.60
1455;DHT22;721;48.168;12.818;2024-03-22T03:21:01;8.00;30.30
1455;DHT22;721;48.168;12.818;2024-03-22T03:23:28;8.00;30.30
1455;DHT22;721;48.168;12.818;2024-03-22T03:25:54;8.00;29.90
1455;DHT22;721;48.168;12.818;2024-03-22T03:28:20;7.90;30.00
1455;DHT22;721;48.168;12.818;2024-03-22T03:30:46;7.90;30.00
1455;DHT22;721;48.168;12.818;2024-03-22T03:33:14;7.90;29.90
1455;DHT22;721;48.168;12.818;2024-03-22T03:35:40;7.90;29.20
1455;DHT22;721;48.168;12.818;2024-03-22T03:38:07;7.80;28.80
1455;DHT22;721;48.168;12.818;2024-03-22T03:40:32;7.80;30.00
1455;DHT22;721;48.168;12.818;2024-03-22T03:42:59;7.60;31.10
1455;DHT22;721;48.168;12.818;2024-03-22T03:45:25;7.50;32.40
1455;DHT22;721;48.168;12.818;2024-03-22T03:47:52;7.50;33.50
1455;DHT22;721;48.168;12.818;2024-03-22T03:50:19;7.50;32.70
1455;DHT22;721;48.168;12.818;2024-03-22T03:52:46;7.40;32.30
1455;DHT22;721;48.168;12.818;2024-03-22T03:55:12;7.50;32.10
1455;DHT22;721;48.168;12.818;2024-03-22T03:57:39;7.50;32.40
1455;DHT22;721;48.168;12.818;2024-03-22T04:00:06;7.40;34.80
1455;DHT22;721;48.168;12.818;2024-03-22T04:02:32;7.50;35.40
1455;DHT22;721;48.168;12.818;2024-03-22T04:04:58;7.50;34.30
1455;DHT22;721;48.168;12.818;2024-03-22T04:07:26;7.50;32.70
1455;DHT22;721;48.168;12.818;2024-03-22T04:09:52;7.60;31.90
1455;DHT22;721;48.168;12.818;2024-03-22T04:12:19;7.60;32.10
1455;DHT22;721;48.168;12.818;2024-03-22T04:14:45;7.60;32.00
1455;DHT22;721;48.168;12.818;2024-03-22T04:17:12;7.50;32.00
1455;DHT22;721;48.168;12.818;2024-03-22T04:19:37;7.40;32.90
1455;DHT22;721;48.168;12.818;2024-03-22T04:22:04;7.10;35.00
1455;DHT22;721;48.168;12.818;2024-03-22T04:24:31;7.00;37.10
1455;DHT22;721;48.168;12.818;2024-03-22T04:26:58;7.00;37.60
1455;DHT22;721;48.168;12.818;2024-03-22T04:29:24;7.00;36.10
1455;DHT22;721;48.168;12.818;2024-03-22T04:31:51;6.90;37.40
1455;DHT22;721;48.168;12.818;2024-03-22T04:34:16;6.70;40.90
1455;DHT22;721;48.168;12.818;2024-03-22T04:36:43;6.60;43.10
1455;DHT22;721;48.168;12.818;2024-03-22T04:39:10;6.60;42.70
1455;DHT22;721;48.168;12.818;2024-03-22T04:41:39;6.70;42.30
1455;DHT22;721;48.168;12.818;2024-03-22T04:44:05;6.90;40.50
1455;DHT22;721;48.168;12.818;2024-03-22T04:46:31;6.80;39.30
1455;DHT22;721;48.168;12.818;2024-03-22T04:48:57;6.80;39.10
1455;DHT22;721;48.168;12.818;2024-03-22T04:51:24;6.90;38.30
1455;DHT22;721;48.168;12.818;2024-03-22T04:53:50;6.80;38.60
1455;DHT22;721;48.168;12.818;2024-03-22T04:56:17;6.70;38.80
1455;DHT22;721;48.168;12.818;2024-03-22T04:58:45;6.50;40.50
1455;DHT22;721;48.168;12.818;2024-03-22T05:01:10;6.30;42.90
1455;DHT22;721;48.168;12.818;2024-03-22T05:03:38;6.30;42.90
1455;DHT22;721;48.168;12.818;2024-03-22T05:06:04;6.50;42.30
1455;DHT22;721;48.168;12.818;2024-03-22T05:08:32;6.40;41.40
1455;DHT22;721;48.168;12.818;2024-03-22T05:10:57;6.40;41.90
1455;DHT22;721;48.168;12.818;2024-03-22T05:13:24;6.50;39.70
1455;DHT22;721;48.168;12.818;2024-03-22T05:15:51;6.50;38.50
1455;DHT22;721;48.168;12.818;2024-03-22T05:18:18;6.50;38.00
1455;DHT22;721;48.168;12.818;2024-03-22T05:20:44;6.60;37.50
1455;DHT22;721;48.168;12.818;2024-03-22T05:23:11;6.50;37.70
1455;DHT22;721;48.168;12.818;2024-03-22T05:25:37;6.60;37.30
1455;DHT22;721;48.168;12.818;2024-03-22T05:28:04;6.50;37.50
1455;DHT22;721;48.168;12.818;2024-03-22T05:30:29;6.40;38.60
1455;DHT22;721;48.168;12.818;2024-03-22T05:32:57;6.40;40.70
1455;DHT22;721;48.168;12.818;2024-03-22T05:35:23;6.40;40.20
1455;DHT22;721;48.168;12.818;2024-03-22T05:37:50;6.40;40.80
1455;DHT22;721;48.168;12.818;2024-03-22T05:40:16;6.40;40.70
1455;DHT22;721;48.168;12.818;2024-03-22T05:42:43;6.40;42.10
1455;DHT22;721;48.168;12.818;2024-03-22T05:45:09;6.30;43.40
1455;DHT22;721;48.168;12.818;2024-03-22T05:47:36;6.40;43.80
1455;DHT22;721;48.168;12.818;2024-03-22T05:50:05;6.40;44.10
1455;DHT22;721;48.168;12.818;2024-03-22T05:52:34;6.40;42.00
1455;DHT22;721;48.168;12.818;2024-03-22T05:54:59;6.40;41.50
1455;DHT22;721;48.168;12.818;2024-03-22T05:57:26;6.40;42.60
1455;DHT22;721;48.168;12.818;2024-03-22T05:59:52;6.40;43.20
1455;DHT22;721;48.168;12.818;2024-03-22T06:02:19;6.40;43.90
1455;DHT22;721;48.168;12.818;2024-03-22T06:04:46;6.30;45.40
1455;DHT22;721;48.168;12.818;2024-03-22T06:07:14;6.20;49.50
1455;DHT22;721;48.168;12.818;2024-03-22T06:09:42;6.10;52.10
1455;DHT22;721;48.168;12.818;2024-03-22T06:12:11;6.10;54.30
1455;DHT22;721;48.168;12.818;2024-03-22T06:14:39;6.10;55.30
1455;DHT22;721;48.168;12.818;2024-03-22T06:17:05;6.20;55.30
1455;DHT22;721;48.168;12.818;2024-03-22T06:19:32;6.30;54.70
1455;DHT22;721;48.168;12.818;2024-03-22T06:21:57;6.40;52.60
1455;DHT22;721;48.168;12.818;2024-03-22T06:24:26;6.40;52.40
1455;DHT22;721;48.168;12.818;2024-03-22T06:26:52;6.40;52.30
1455;DHT22;721;48.168;12.818;2024-03-22T06:29:18;6.50;54.30
1455;DHT22;721;48.168;12.818;2024-03-22T06:31:44;6.60;55.60
1455;DHT22;721;48.168;12.818;2024-03-22T06:34:11;6.60;56.70
1455;DHT22;721;48.168;12.818;2024-03-22T06:36:37;6.70;56.90
1455;DHT22;721;48.168;12.818;2024-03-22T06:39:04;6.80;56.90
1455;DHT22;721;48.168;12.818;2024-03-22T06:41:36;6.90;56.80
1455;DHT22;721;48.168;12.818;2024-03-22T06:44:03;7.10;56.20
1455;DHT22;721;48.168;12.818;2024-03-22T06:46:28;7.20;54.20
1455;DHT22;721;48.168;12.818;2024-03-22T06:48:57;7.30;53.40
1455;DHT22;721;48.168;12.818;2024-03-22T06:51:23;7.40;53.20
1455;DHT22;721;48.168;12.818;2024-03-22T06:53:50;7.50;52.30
1455;DHT22;721;48.168;12.818;2024-03-22T06:56:16;7.60;52.60
1455;DHT22;721;48.168;12.818;2024-03-22T06:58:45;7.70;53.50
1455;DHT22;721;48.168;12.818;2024-03-22T07:01:10;7.80;53.40
1455;DHT22;721;48.168;12.818;2024-03-22T07:03:37;7.90;50.60
1455;DHT22;721;48.168;12.818;2024-03-22T07:06:03;7.80;50.00
1455;DHT22;721;48.168;12.818;2024-03-22T07:08:31;7.90;49.10
1455;DHT22;721;48.168;12.818;2024-03-22T07:10:57;7.90;50.80
1455;DHT22;721;48.168;12.818;2024-03-22T07:13:25;8.00;49.80
1455;DHT22;721;48.168;12.818;2024-03-22T07:15:52;8.10;49.80
1455;DHT22;721;48.168;12.818;2024-03-22T07:18:19;8.30;50.30
1455;DHT22;721;48.168;12.818;2024-03-22T07:20:45;8.40;50.40
1455;DHT22;721;48.168;12.818;2024-03-22T07:23:13;8.50;48.20
1455;DHT22;721;48.168;12.818;2024-03-22T07:25:39;8.50;46.70
1455;DHT22;721;48.168;12.818;2024-03-22T07:28:08;8.60;47.90
1455;DHT22;721;48.168;12.818;2024-03-22T07:30:34;8.70;46.10
1455;DHT22;721;48.168;12.818;2024-03-22T07:33:03;8.70;43.30
1455;DHT22;721;48.168;12.818;2024-03-22T07:35:30;8.70;42.10
1455;DHT22;721;48.168;12.818;2024-03-22T07:37:57;8.80;42.40
1455;DHT22;721;48.168;12.818;2024-03-22T07:40:23;8.90;42.10
1455;DHT22;721;48.168;12.818;2024-03-22T07:42:49;9.00;41.20
1455;DHT22;721;48.168;12.818;2024-03-22T07:45:15;9.10;41.50
1455;DHT22;721;48.168;12.818;2024-03-22T07:47:42;9.10;38.90
1455;DHT22;721;48.168;12.818;2024-03-22T07:50:10;9.20;38.70
1455;DHT22;721;48.168;12.818;2024-03-22T07:52:38;9.30;40.70
1455;DHT22;721;48.168;12.818;2024-03-22T07:55:04;9.40;41.20
1455;DHT22;721;48.168;12.818;2024-03-22T07:57:32;9.40;36.90
1455;DHT22;721;48.168;12.818;2024-03-22T07:59:57;9.50;36.20
1455;DHT22;721;48.168;12.818;2024-03-22T08:02:24;9.60;40.00
1455;DHT22;721;48.168;12.818;2024-03-22T08:04:50;9.70;41.50
1455;DHT22;721;48.168;12.818;2024-03-22T08:07:19;9.80;39.50
1455;DHT22;721;48.168;12.818;2024-03-22T08:09:45;9.80;39.00
1455;DHT22;721;48.168;12.818;2024-03-22T08:12:11;9.90;39.40
1455;DHT22;721;48.168;12.818;2024-03-22T08:14:37;10.00;37.90
1455;DHT22;721;48.168;12.818;2024-03-22T08:17:04;10.20;38.80
1455;DHT22;721;48.168;12.818;2024-03-22T08:19:31;10.30;36.50
1455;DHT22;721;48.168;12.818;2024-03-22T08:21:58;10.40;34.90
1455;DHT22;721;48.168;12.818;2024-03-22T08:24:25;10.40;30.90
1455;DHT22;721;48.168;12.818;2024-03-22T08:26:52;10.50;32.20
1455;DHT22;721;48.168;12.818;2024-03-22T08:29:18;10.60;32.00
1455;DHT22;721;48.168;12.818;2024-03-22T08:31:44;10.80;31.70
1455;DHT22;721;48.168;12.818;2024-03-22T08:34:10;10.80;33.50
1455;DHT22;721;48.168;12.818;2024-03-22T08:36:37;10.90;31.30
1455;DHT22;721;48.168;12.818;2024-03-22T08:39:03;11.00;31.40
1455;DHT22;721;48.168;12.818;2024-03-22T08:41:32;11.10;28.80
1455;DHT22;721;48.168;12.818;2024-03-22T08:43:58;11.20;28.20
1455;DHT22;721;48.168;12.818;2024-03-22T08:46:24;11.40;27.70
1455;DHT22;721;48.168;12.818;2024-03-22T08:48:52;11.60;27.80
1455;DHT22;721;48.168;12.818;2024-03-22T08:51:19;11.70;24.50
1455;DHT22;721;48.168;12.818;2024-03-22T08:53:45;11.70;23.60
1455;DHT22;721;48.168;12.818;2024-03-22T08:56:11;11.80;25.60
1455;DHT22;721;48.168;12.818;2024-03-22T08:58:39;11.90;25.80
1455;DHT22;721;48.168;12.818;2024-03-22T09:01:06;11.90;25.20
1455;DHT22;721;48.168;12.818;2024-03-22T09:03:31;12.10;24.90
1455;DHT22;721;48.168;12.818;2024-03-22T09:05:58;12.20;26.00
1455;DHT22;721;48.168;12.818;2024-03-22T09:08:24;12.30;25.80
1455;DHT22;721;48.168;12.818;2024-03-22T09:10:51;12.40;23.50
1455;DHT22;721;48.168;12.818;2024-03-22T09:13:17;12.50;21.90
1455;DHT22;721;48.168;12.818;2024-03-22T09:15:45;12.60;20.60
1455;DHT22;721;48.168;12.818;2024-03-22T09:18:11;12.70;21.70
1455;DHT22;721;48.168;12.818;2024-03-22T09:20:38;12.80;21.40
1455;DHT22;721;48.168;12.818;2024-03-22T09:23:04;12.80;19.20
1455;DHT22;721;48.168;12.818;2024-03-22T09:25:31;12.90;20.20
1455;DHT22;721;48.168;12.818;2024-03-22T09:27:56;12.90;20.80
1455;DHT22;721;48.168;12.818;2024-03-22T09:30:23;13.10;21.00
1455;DHT22;721;48.168;12.818;2024-03-22T09:32:51;13.10;17.00
1455;DHT22;721;48.168;12.818;2024-03-22T09:35:17;13.20;15.30
1455;DHT22;721;48.168;12.818;2024-03-22T09:37:43;13.30;18.20
1455;DHT22;721;48.168;12.818;2024-03-22T09:40:11;13.50;13.60
1455;DHT22;721;48.168;12.818;2024-03-22T09:42:38;13.60;14.40
1455;DHT22;721;48.168;12.818;2024-03-22T09:45:08;13.60;14.50
1455;DHT22;721;48.168;12.818;2024-03-22T09:47:36;13.70;13.20
1455;DHT22;721;48.168;12.818;2024-03-22T09:50:07;13.90;11.60
1455;DHT22;721;48.168;12.818;2024-03-22T09:52:34;14.00;11.70
1455;DHT22;721;48.168;12.818;2024-03-22T09:55:01;14.00;7.60
1455;DHT22;721;48.168;12.818;2024-03-22T09:57:31;14.20;4.30
1455;DHT22;721;48.168;12.818;2024-03-22T09:59:57;14.20;2.20
1455;DHT22;721;48.168;12.818;2024-03-22T10:02:24;14.20;1.40
1455;DHT22;721;48.168;12.818;2024-03-22T10:04:51;14.30;1.20
1455;DHT22;721;48.168;12.818;2024-03-22T10:07:20;14.30;2.70
1455;DHT22;721;48.168;12.818;2024-03-22T10:09:45;14.30;1.90
1455;DHT22;721;48.168;12.818;2024-03-22T10:12:12;14.40;1.00
1455;DHT22;721;48.168;12.818;2024-03-22T10:14:38;14.50;1.00
1455;DHT22;721;48.168;12.818;2024-03-22T10:17:07;14.60;1.00
1455;DHT22;721;48.168;12.818;2024-03-22T10:19:33;14.80;1.00
1455;DHT22;721;48.168;12.818;2024-03-22T10:22:00;15.00;1.00
1455;DHT22;721;48.168;12.818;2024-03-22T10:24:28;15.10;1.00
1455;DHT22;721;48.168;12.818;2024-03-22T10:26:55;15.10;1.00
1455;DHT22;721;48.168;12.818;2024-03-22T10:29:21;15.10;1.00
1455;DHT22;721;48.168;12.818;2024-03-22T10:31:49;15.00;1.00
1455;DHT22;721;48.168;12.818;2024-03-22T10:34:16;15.20;1.00
1455;DHT22;721;48.168;12.818;2024-03-22T10:36:44;15.10;1.00
1455;DHT22;721;48.168;12.818;2024-03-22T10:39:11;15.00;1.00
1455;DHT22;721;48.168;12.818;2024-03-22T10:41:40;15.00;1.00
1455;DHT22;721;48.168;12.818;2024-03-22T10:44:06;15.10;1.00
1455;DHT22;721;48.168;12.818;2024-03-22T10:46:34;15.20;1.00
1455;DHT22;721;48.168;12.818;2024-03-22T10:49:01;15.30;1.00
1455;DHT22;721;48.168;12.818;2024-03-22T10:51:31;15.40;1.00
1455;DHT22;721;48.168;12.818;2024-03-22T10:54:00;15.40;1.00
1455;DHT22;721;48.168;12.818;2024-03-22T10:56:29;15.30;1.00
1455;DHT22;721;48.168;12.818;2024-03-22T10:58:56;15.30;1.00
1455;DHT22;721;48.168;12.818;2024-03-22T11:01:24;15.40;1.00
1455;DHT22;721;48.168;12.818;2024-03-22T11:03:50;15.30;1.00
1455;DHT22;721;48.168;12.818;2024-03-22T11:06:20;15.40;1.00
1455;DHT22;721;48.168;12.818;2024-03-22T11:08:50;15.50;1.00
1455;DHT22;721;48.168;12.818;2024-03-22T11:11:18;15.60;1.00
1455;DHT22;721;48.168;12.818;2024-03-22T11:13:46;15.70;1.00
1455;DHT22;721;48.168;12.818;2024-03-22T11:16:15;15.90;1.00
1455;DHT22;721;48.168;12.818;2024-03-22T11:18:42;16.00;1.00
1455;DHT22;721;48.168;12.818;2024-03-22T11:21:09;15.90;1.00
1455;DHT22;721;48.168;12.818;2024-03-22T11:23:36;16.00;1.00
1455;DHT22;721;48.168;12.818;2024-03-22T11:26:04;16.10;1.00
1455;DHT22;721;48.168;12.818;2024-03-22T11:28:29;16.20;1.00
1455;DHT22;721;48.168;12.818;2024-03-22T11:30:57;16.10;1.00
1455;DHT22;721;48.168;12.818;2024-03-22T11:33:24;16.10;1.00
1455;DHT22;721;48.168;12.818;2024-03-22T11:35:52;16.20;1.00
1455;DHT22;721;48.168;12.818;2024-03-22T11:38:18;16.10;1.00
1455;DHT22;721;48.168;12.818;2024-03-22T11:40:45;16.30;1.00
1455;DHT22;721;48.168;12.818;2024-03-22T11:43:12;16.60;1.00
1455;DHT22;721;48.168;12.818;2024-03-22T11:45:40;16.70;1.00
1455;DHT22;721;48.168;12.818;2024-03-22T11:48:07;16.90;1.00
1455;DHT22;721;48.168;12.818;2024-03-22T11:50:36;16.90;1.00
1455;DHT22;721;48.168;12.818;2024-03-22T11:53:05;17.00;1.00
1455;DHT22;721;48.168;12.818;2024-03-22T11:55:32;16.90;1.00
1455;DHT22;721;48.168;12.818;2024-03-22T11:57:58;16.90;1.00
1455;DHT22;721;48.168;12.818;2024-03-22T12:00:25;16.70;1.00
1455;DHT22;721;48.168;12.818;2024-03-22T12:02:52;16.80;1.00
1455;DHT22;721;48.168;12.818;2024-03-22T12:05:20;16.70;1.00
1455;DHT22;721;48.168;12.818;2024-03-22T12:07:48;16.80;1.00
1455;DHT22;721;48.168;12.818;2024-03-22T12:10:15;16.90;1.00
1455;DHT22;721;48.168;12.818;2024-03-22T12:12:40;17.10;1.00
1455;DHT22;721;48.168;12.818;2024-03-22T12:15:07;17.30;1.00
1455;DHT22;721;48.168;12.818;2024-03-22T12:17:33;17.40;1.00
1455;DHT22;721;48.168;12.818;2024-03-22T12:20:01;17.50;1.00
1455;DHT22;721;48.168;12.818;2024-03-22T12:22:29;17.50;1.00
1455;DHT22;721;48.168;12.818;2024-03-22T12:24:57;17.70;1.00
1455;DHT22;721;48.168;12.818;2024-03-22T12:27:24;17.70;1.00
1455;DHT22;721;48.168;12.818;2024-03-22T12:29:51;17.60;1.00
1455;DHT22;721;48.168;12.818;2024-03-22T12:32:17;17.60;1.00
1455;DHT22;721;48.168;12.818;2024-03-22T12:34:44;17.20;1.00
1455;DHT22;721;48.168;12.818;2024-03-22T12:37:10;17.10;1.00
1455;DHT22;721;48.168;12.818;2024-03-22T12:39:37;17.10;1.00
1455;DHT22;721;48.168;12.818;2024-03-22T12:42:05;17.10;1.00
1455;DHT22;721;48.168;12.818;2024-03-22T12:44:32;17.00;1.00
1455;DHT22;721;48.168;12.818;2024-03-22T12:46:58;17.10;1.00
1455;DHT22;721;48.168;12.818;2024-03-22T12:49:25;17.00;1.00
1455;DHT22;721;48.168;12.818;2024-03-22T12:51:50;17.10;1.00
1455;DHT22;721;48.168;12.818;2024-03-22T12:54:17;17.30;1.00
1455;DHT22;721;48.168;12.818;2024-03-22T12:56:44;17.40;1.00
1455;DHT22;721;48.168;12.818;2024-03-22T12:59:12;17.40;1.00
1455;DHT22;721;48.168;12.818;2024-03-22T13:01:38;17.40;1.00
1455;DHT22;721;48.168;12.818;2024-03-22T13:04:05;17.50;1.00
1455;DHT22;721;48.168;12.818;2024-03-22T13:06:31;18.00;1.00
1455;DHT22;721;48.168;12.818;2024-03-22T13:09:00;18.10;1.00
1455;DHT22;721;48.168;12.818;2024-03-22T13:11:25;18.30;1.00
1455;DHT22;721;48.168;12.818;2024-03-22T13:13:53;18.50;1.00
1455;DHT22;721;48.168;12.818;2024-03-22T13:16:20;18.60;1.00
1455;DHT22;721;48.168;12.818;2024-03-22T13:18:47;18.70;1.00
1455;DHT22;721;48.168;12.818;2024-03-22T13:21:13;18.90;1.00
1455;DHT22;721;48.168;12.818;2024-03-22T13:23:40;19.00;1.00
1455;DHT22;721;48.168;12.818;2024-03-22T13:26:06;19.10;1.00
1455;DHT22;721;48.168;12.818;2024-03-22T13:28:32;19.20;1.00
1455;DHT22;721;48.168;12.818;2024-03-22T13:31:00;19.40;1.00
1455;DHT22;721;48.168;12.818;2024-03-22T13:33:27;19.40;1.00
1455;DHT22;721;48.168;12.818;2024-03-22T13:35:54;19.40;1.00
1455;DHT22;721;48.168;12.818;2024-03-22T13:38:20;20.00;1.00
1455;DHT22;721;48.168;12.818;2024-03-22T13:40:53;20.20;1.00
1455;DHT22;721;48.168;12.818;2024-03-22T13:43:19;20.30;1.00
1455;DHT22;721;48.168;12.818;2024-03-22T13:45:47;20.30;1.00
1455;DHT22;721;48.168;12.818;2024-03-22T13:48:14;20.30;1.00
1455;DHT22;721;48.168;12.818;2024-03-22T13:50:42;20.20;1.00
1455;DHT22;721;48.168;12.818;2024-03-22T13:53:08;20.00;1.00
1455;DHT22;721;48.168;12.818;2024-03-22T13:55:36;20.10;1.00
1455;DHT22;721;48.168;12.818;2024-03-22T13:58:01;20.30;1.00
1455;DHT22;721;48.168;12.818;2024-03-22T14:00:29;20.40;1.00
1455;DHT22;721;48.168;12.818;2024-03-22T14:02:54;20.40;1.00
1455;DHT22;721;48.168;12.818;2024-03-22T14:05:22;20.20;1.00
1455;DHT22;721;48.168;12.818;2024-03-22T14:07:51;20.20;1.00
1455;DHT22;721;48.168;12.818;2024-03-22T14:10:18;20.40;1.00
1455;DHT22;721;48.168;12.818;2024-03-22T14:12:45;20.40;1.00
1455;DHT22;721;48.168;12.818;2024-03-22T14:15:13;20.40;1.00
1455;DHT22;721;48.168;12.818;2024-03-22T14:17:39;20.30;1.00
1455;DHT22;721;48.168;12.818;2024-03-22T14:20:07;20.40;1.00
1455;DHT22;721;48.168;12.818;2024-03-22T14:22:37;20.50;1.00
1455;DHT22;721;48.168;12.818;2024-03-22T14:25:06;20.40;1.00
1455;DHT22;721;48.168;12.818;2024-03-22T14:27:32;20.40;1.00
1455;DHT22;721;48.168;12.818;2024-03-22T14:29:59;20.40;1.00
1455;DHT22;721;48.168;12.818;2024-03-22T14:32:25;20.40;1.00
1455;DHT22;721;48.168;12.818;2024-03-22T14:34:52;20.10;1.00
1455;DHT22;721;48.168;12.818;2024-03-22T14:37:18;19.90;1.00
1455;DHT22;721;48.168;12.818;2024-03-22T14:39:45;19.80;1.00
1455;DHT22;721;48.168;12.818;2024-03-22T14:42:13;20.00;1.00
1455;DHT22;721;48.168;12.818;2024-03-22T14:44:40;19.80;1.00
1455;DHT22;721;48.168;12.818;2024-03-22T14:47:06;19.80;1.00
1455;DHT22;721;48.168;12.818;2024-03-22T14:49:33;19.80;1.00
1455;DHT22;721;48.168;12.818;2024-03-22T14:51:59;19.90;1.00
1455;DHT22;721;48.168;12.818;2024-03-22T14:54:26;19.70;1.00
1455;DHT22;721;48.168;12.818;2024-03-22T14:56:52;19.80;1.00
1455;DHT22;721;48.168;12.818;2024-03-22T14:59:21;20.00;1.00
1455;DHT22;721;48.168;12.818;2024-03-22T15:01:47;19.90;1.00
1455;DHT22;721;48.168;12.818;2024-03-22T15:04:14;19.90;1.00
1455;DHT22;721;48.168;12.818;2024-03-22T15:06:39;19.80;1.00
1455;DHT22;721;48.168;12.818;2024-03-22T15:09:06;19.80;1.00
1455;DHT22;721;48.168;12.818;2024-03-22T15:11:36;20.10;1.00
1455;DHT22;721;48.168;12.818;2024-03-22T15:14:03;20.30;1.00
1455;DHT22;721;48.168;12.818;2024-03-22T15:16:30;20.50;1.00
1455;DHT22;721;48.168;12.818;2024-03-22T15:18:57;20.50;1.00
1455;DHT22;721;48.168;12.818;2024-03-22T15:21:23;20.40;1.00
1455;DHT22;721;48.168;12.818;2024-03-22T15:23:49;20.30;1.00
1455;DHT22;721;48.168;12.818;2024-03-22T15:26:15;20.40;1.00
1455;DHT22;721;48.168;12.818;2024-03-22T15:28:42;20.40;1.00
1455;DHT22;721;48.168;12.818;2024-03-22T15:31:08;20.20;1.00
1455;DHT22;721;48.168;12.818;2024-03-22T15:33:36;20.20;1.00
1455;DHT22;721;48.168;12.818;2024-03-22T15:36:03;20.10;1.00
1455;DHT22;721;48.168;12.818;2024-03-22T15:38:29;20.20;1.00
1455;DHT22;721;48.168;12.818;2024-03-22T15:40:56;20.40;1.00
1455;DHT22;721;48.168;12.818;2024-03-22T15:43:22;20.60;1.00
1455;DHT22;721;48.168;12.818;2024-03-22T15:45:49;20.80;1.00
1455;DHT22;721;48.168;12.818;2024-03-22T15:48:15;20.80;1.00
1455;DHT22;721;48.168;12.818;2024-03-22T15:50:46;20.70;1.00
1455;DHT22;721;48.168;12.818;2024-03-22T15:53:12;20.50;1.00
1455;DHT22;721;48.168;12.818;2024-03-22T15:55:39;20.40;1.00
1455;DHT22;721;48.168;12.818;2024-03-22T15:58:05;20.40;1.00
1455;DHT22;721;48.168;12.818;2024-03-22T16:00:32;20.40;1.00
1455;DHT22;721;48.168;12.818;2024-03-22T16:02:58;20.40;1.00
1455;DHT22;721;48.168;12.818;2024-03-22T16:05:25;20.30;1.00
1455;DHT22;721;48.168;12.818;2024-03-22T16:07:52;20.40;1.00
1455;DHT22;721;48.168;12.818;2024-03-22T16:10:19;20.30;1.00
1455;DHT22;721;48.168;12.818;2024-03-22T16:12:45;20.20;1.00